createdAt,value
2022-09-18T00:06:40.712Z,9.02
2022-09-18T00:16:43.465Z,8.87
2022-09-18T00:26:46.946Z,8.72
2022-09-18T00:36:49.266Z,8.61
2022-09-18T00:46:51.756Z,8.48
2022-09-18T00:56:59.660Z,8.40
2022-09-18T01:07:18.716Z,8.41
2022-09-18T01:17:40.015Z,8.35
2022-09-18T01:27:42.312Z,8.29
2022-09-18T01:37:57.977Z,8.21
2022-09-18T01:48:09.136Z,8.20
2022-09-18T01:58:21.226Z,8.21
2022-09-18T02:08:32.246Z,8.13
2022-09-18T02:18:42.353Z,8.16
2022-09-18T02:28:46.136Z,8.10
2022-09-18T02:38:52.228Z,8.02
2022-09-18T02:49:44.479Z,7.93
2022-09-18T02:59:54.651Z,7.87
2022-09-18T03:09:56.920Z,7.89
2022-09-18T03:19:59.240Z,7.82
2022-09-18T03:30:01.572Z,7.75
2022-09-18T03:40:04.427Z,7.68
2022-09-18T03:50:07.535Z,7.65
2022-09-18T04:00:10.645Z,7.64
2022-09-18T04:10:12.940Z,7.61
2022-09-18T04:20:15.589Z,7.54
2022-09-18T04:30:18.155Z,7.43
2022-09-18T04:40:20.832Z,7.39
2022-09-18T04:50:23.213Z,7.23
2022-09-18T05:00:26.224Z,7.16
2022-09-18T05:10:28.945Z,7.11
2022-09-18T05:20:32.037Z,7.12
2022-09-18T05:30:34.351Z,6.97
2022-09-18T05:40:38.260Z,6.87
2022-09-18T05:50:42.399Z,6.84
2022-09-18T06:00:46.285Z,6.88
2022-09-18T06:10:48.855Z,7.05
2022-09-18T06:20:57.118Z,7.22
2022-09-18T06:31:00.255Z,7.52
2022-09-18T06:41:02.834Z,7.89
2022-09-18T06:51:05.123Z,8.27
2022-09-18T07:01:07.590Z,8.62
2022-09-18T07:11:09.936Z,8.98
2022-09-18T07:21:12.482Z,9.32
2022-09-18T07:31:14.854Z,9.73
2022-09-18T07:41:17.947Z,10.04
2022-09-18T07:51:25.434Z,10.31
2022-09-18T08:01:28.691Z,10.81
2022-09-18T08:11:31.257Z,11.22
2022-09-18T08:21:33.761Z,11.64
2022-09-18T08:31:36.130Z,11.96
2022-09-18T08:42:07.606Z,12.23
2022-09-18T08:52:16.280Z,12.49
2022-09-18T09:02:25.270Z,12.92
2022-09-18T09:12:39.348Z,13.13
2022-09-18T09:22:55.035Z,13.35
2022-09-18T09:33:16.531Z,13.61
2022-09-18T09:43:44.582Z,13.92
2022-09-18T09:53:47.562Z,14.26
2022-09-18T10:04:34.886Z,14.23
2022-09-18T10:14:42.544Z,14.07
2022-09-18T10:25:03.291Z,14.41
2022-09-18T10:35:27.671Z,14.65
2022-09-18T10:45:38.570Z,14.74
2022-09-18T10:55:52.705Z,14.51
2022-09-18T11:06:01.860Z,14.17
2022-09-18T11:16:05.921Z,14.28
2022-09-18T11:26:27.777Z,14.87
2022-09-18T11:36:33.244Z,15.64
2022-09-18T11:46:53.939Z,16.48
2022-09-18T11:57:03.569Z,16.62
2022-09-18T12:07:40.826Z,17.03
2022-09-18T12:17:54.762Z,17.54
2022-09-18T12:28:21.990Z,17.95
2022-09-18T12:39:00.097Z,18.21
2022-09-18T12:49:21.509Z,18.85
2022-09-18T12:59:56.945Z,18.76
2022-09-18T13:10:10.903Z,19.20
2022-09-18T13:20:17.370Z,19.26
2022-09-18T13:30:32.303Z,19.07
2022-09-18T13:40:39.526Z,18.51
2022-09-18T13:50:55.554Z,18.47
2022-09-18T14:00:59.749Z,18.65
2022-09-18T14:11:15.502Z,18.93
2022-09-18T14:21:18.901Z,18.58
2022-09-18T14:31:28.714Z,17.92
2022-09-18T14:41:35.945Z,17.73
2022-09-18T14:52:03.233Z,17.13
2022-09-18T15:02:32.290Z,17.29
2022-09-18T15:12:36.778Z,17.07
2022-09-18T15:22:40.094Z,16.54
2022-09-18T15:32:48.022Z,16.38
2022-09-18T15:43:28.575Z,16.18
2022-09-18T15:53:31.271Z,15.91
2022-09-18T16:03:41.257Z,15.71
2022-09-18T16:13:43.896Z,15.44
2022-09-18T16:23:56.978Z,15.16
2022-09-18T16:34:05.791Z,14.89
2022-09-18T16:44:12.199Z,14.60
2022-09-18T16:54:14.516Z,14.28
2022-09-18T17:04:17.137Z,14.00
2022-09-18T17:14:20.026Z,13.79
2022-09-18T17:24:28.194Z,13.53
2022-09-18T17:34:30.737Z,13.32
2022-09-18T17:44:34.995Z,13.13
2022-09-18T17:54:37.820Z,12.96
2022-09-18T18:04:40.742Z,12.77
2022-09-18T18:14:43.411Z,12.61
2022-09-18T18:24:45.830Z,12.50
2022-09-18T18:34:48.836Z,12.43
2022-09-18T18:44:51.561Z,12.34
2022-09-18T18:54:54.464Z,12.22
2022-09-18T19:05:03.657Z,12.16
2022-09-18T19:15:06.760Z,12.08
2022-09-18T19:25:09.265Z,12.03
2022-09-18T19:35:12.132Z,11.95
2022-09-18T19:45:18.747Z,11.95
2022-09-18T19:55:21.537Z,11.93
2022-09-18T20:05:24.018Z,11.90
2022-09-18T20:15:26.985Z,11.89
2022-09-18T20:25:29.484Z,11.84
2022-09-18T20:35:32.233Z,11.80
2022-09-18T20:45:34.770Z,11.78
2022-09-18T20:55:37.254Z,11.80
2022-09-18T21:05:43.293Z,11.82
2022-09-18T21:15:49.019Z,11.86
2022-09-18T21:25:51.306Z,11.85
2022-09-18T21:35:55.239Z,11.87
2022-09-18T21:46:03.899Z,11.81
2022-09-18T21:56:10.156Z,11.79
2022-09-18T22:06:12.573Z,11.78
2022-09-18T22:16:14.924Z,11.78
2022-09-18T22:26:17.635Z,11.77
2022-09-18T22:36:20.841Z,11.76
2022-09-18T22:46:25.524Z,11.72
2022-09-18T22:56:29.389Z,11.68
2022-09-18T23:06:33.825Z,11.79
2022-09-18T23:16:37.147Z,11.81
2022-09-18T23:26:41.294Z,11.91
2022-09-18T23:36:45.605Z,11.87
2022-09-18T23:46:48.207Z,11.86
2022-09-18T23:56:51.282Z,11.84
